sensor_id;sensor_type;location;lat;lon;timestamp;P1;durP1;ratioP1;P2;durP2;ratioP2
68923;SDS011;55961;52.156;20.942;2023-07-20T00:01:24;6.43;;;2.38;;
68923;SDS011;55961;52.156;20.942;2023-07-20T00:03:50;5.90;;;2.67;;
68923;SDS011;55961;52.156;20.942;2023-07-20T00:06:24;7.35;;;2.40;;
68923;SDS011;55961;52.156;20.942;2023-07-20T00:08:51;5.78;;;2.45;;
68923;SDS011;55961;52.156;20.942;2023-07-20T00:11:17;8.27;;;2.55;;
68923;SDS011;55961;52.156;20.942;2023-07-20T00:13:43;6.50;;;2.37;;
68923;SDS011;55961;52.156;20.942;2023-07-20T00:16:09;5.22;;;2.17;;
68923;SDS011;55961;52.156;20.942;2023-07-20T00:18:35;5.97;;;2.65;;
68923;SDS011;55961;52.156;20.942;2023-07-20T00:21:01;6.25;;;2.30;;
68923;SDS011;55961;52.156;20.942;2023-07-20T00:23:27;5.30;;;2.38;;
68923;SDS011;55961;52.156;20.942;2023-07-20T00:25:53;5.50;;;2.37;;
68923;SDS011;55961;52.156;20.942;2023-07-20T00:28:19;5.00;;;1.83;;
68923;SDS011;55961;52.156;20.942;2023-07-20T00:30:46;5.60;;;2.10;;
68923;SDS011;55961;52.156;20.942;2023-07-20T00:33:12;7.23;;;2.47;;
68923;SDS011;55961;52.156;20.942;2023-07-20T00:35:38;5.83;;;2.20;;
68923;SDS011;55961;52.156;20.942;2023-07-20T00:38:04;4.38;;;2.00;;
68923;SDS011;55961;52.156;20.942;2023-07-20T00:40:40;5.22;;;2.20;;
68923;SDS011;55961;52.156;20.942;2023-07-20T00:43:07;5.70;;;2.10;;
68923;SDS011;55961;52.156;20.942;2023-07-20T00:45:34;6.90;;;2.25;;
68923;SDS011;55961;52.156;20.942;2023-07-20T00:48:02;5.20;;;2.00;;
68923;SDS011;55961;52.156;20.942;2023-07-20T00:50:30;7.68;;;2.38;;
68923;SDS011;55961;52.156;20.942;2023-07-20T00:52:57;9.85;;;2.60;;
68923;SDS011;55961;52.156;20.942;2023-07-20T00:55:24;4.75;;;2.28;;
68923;SDS011;55961;52.156;20.942;2023-07-20T00:57:53;6.10;;;2.30;;
68923;SDS011;55961;52.156;20.942;2023-07-20T01:00:19;5.07;;;2.13;;
68923;SDS011;55961;52.156;20.942;2023-07-20T01:02:45;9.15;;;2.60;;
68923;SDS011;55961;52.156;20.942;2023-07-20T01:05:12;7.65;;;2.25;;
68923;SDS011;55961;52.156;20.942;2023-07-20T01:12:43;7.15;;;2.40;;
68923;SDS011;55961;52.156;20.942;2023-07-20T01:15:12;6.00;;;2.00;;
68923;SDS011;55961;52.156;20.942;2023-07-20T01:17:38;8.70;;;2.63;;
68923;SDS011;55961;52.156;20.942;2023-07-20T01:20:06;8.00;;;2.58;;
68923;SDS011;55961;52.156;20.942;2023-07-20T01:22:45;7.27;;;2.37;;
68923;SDS011;55961;52.156;20.942;2023-07-20T01:31:20;4.97;;;2.22;;
68923;SDS011;55961;52.156;20.942;2023-07-20T01:33:50;5.70;;;2.30;;
68923;SDS011;55961;52.156;20.942;2023-07-20T01:36:19;6.63;;;2.20;;
68923;SDS011;55961;52.156;20.942;2023-07-20T01:38:46;4.30;;;1.88;;
68923;SDS011;55961;52.156;20.942;2023-07-20T01:41:13;7.43;;;2.17;;
68923;SDS011;55961;52.156;20.942;2023-07-20T01:43:40;6.85;;;2.35;;
68923;SDS011;55961;52.156;20.942;2023-07-20T01:46:06;5.72;;;2.47;;
68923;SDS011;55961;52.156;20.942;2023-07-20T01:48:32;8.17;;;2.30;;
68923;SDS011;55961;52.156;20.942;2023-07-20T01:50:58;6.03;;;2.63;;
68923;SDS011;55961;52.156;20.942;2023-07-20T01:53:23;4.90;;;2.35;;
68923;SDS011;55961;52.156;20.942;2023-07-20T01:55:52;6.03;;;2.40;;
68923;SDS011;55961;52.156;20.942;2023-07-20T01:58:18;6.03;;;2.25;;
68923;SDS011;55961;52.156;20.942;2023-07-20T02:00:44;7.70;;;2.30;;
68923;SDS011;55961;52.156;20.942;2023-07-20T02:03:10;7.50;;;2.73;;
68923;SDS011;55961;52.156;20.942;2023-07-20T02:05:37;6.40;;;2.53;;
68923;SDS011;55961;52.156;20.942;2023-07-20T02:08:03;5.50;;;2.40;;
68923;SDS011;55961;52.156;20.942;2023-07-20T02:10:30;4.40;;;2.20;;
68923;SDS011;55961;52.156;20.942;2023-07-20T02:12:56;5.60;;;2.10;;
68923;SDS011;55961;52.156;20.942;2023-07-20T02:15:22;5.47;;;2.53;;
68923;SDS011;55961;52.156;20.942;2023-07-20T02:17:48;5.03;;;2.37;;
68923;SDS011;55961;52.156;20.942;2023-07-20T02:20:14;5.90;;;2.03;;
68923;SDS011;55961;52.156;20.942;2023-07-20T02:22:40;5.22;;;2.40;;
68923;SDS011;55961;52.156;20.942;2023-07-20T02:25:06;8.48;;;2.45;;
68923;SDS011;55961;52.156;20.942;2023-07-20T02:27:33;7.60;;;3.20;;
68923;SDS011;55961;52.156;20.942;2023-07-20T02:29:59;8.55;;;2.75;;
68923;SDS011;55961;52.156;20.942;2023-07-20T02:32:25;7.50;;;2.38;;
68923;SDS011;55961;52.156;20.942;2023-07-20T02:34:51;7.00;;;2.25;;
68923;SDS011;55961;52.156;20.942;2023-07-20T02:37:17;5.20;;;2.13;;
68923;SDS011;55961;52.156;20.942;2023-07-20T02:39:43;8.60;;;2.92;;
68923;SDS011;55961;52.156;20.942;2023-07-20T02:42:09;7.22;;;2.78;;
68923;SDS011;55961;52.156;20.942;2023-07-20T02:44:35;5.85;;;2.45;;
68923;SDS011;55961;52.156;20.942;2023-07-20T02:47:01;6.43;;;2.20;;
68923;SDS011;55961;52.156;20.942;2023-07-20T02:49:27;6.57;;;2.50;;
68923;SDS011;55961;52.156;20.942;2023-07-20T02:51:53;6.38;;;2.38;;
68923;SDS011;55961;52.156;20.942;2023-07-20T02:54:21;7.17;;;3.03;;
68923;SDS011;55961;52.156;20.942;2023-07-20T02:56:47;5.03;;;2.35;;
68923;SDS011;55961;52.156;20.942;2023-07-20T02:59:13;6.28;;;2.50;;
68923;SDS011;55961;52.156;20.942;2023-07-20T03:01:38;6.82;;;2.80;;
68923;SDS011;55961;52.156;20.942;2023-07-20T03:04:07;7.73;;;2.67;;
68923;SDS011;55961;52.156;20.942;2023-07-20T03:06:35;7.13;;;2.45;;
68923;SDS011;55961;52.156;20.942;2023-07-20T03:09:02;6.28;;;2.83;;
68923;SDS011;55961;52.156;20.942;2023-07-20T03:11:29;8.05;;;2.90;;
68923;SDS011;55961;52.156;20.942;2023-07-20T03:13:55;6.07;;;3.08;;
68923;SDS011;55961;52.156;20.942;2023-07-20T03:16:21;5.63;;;2.90;;
68923;SDS011;55961;52.156;20.942;2023-07-20T03:18:50;7.22;;;3.17;;
68923;SDS011;55961;52.156;20.942;2023-07-20T03:21:16;6.93;;;3.40;;
68923;SDS011;55961;52.156;20.942;2023-07-20T03:23:42;8.63;;;3.10;;
68923;SDS011;55961;52.156;20.942;2023-07-20T03:26:08;10.13;;;4.20;;
68923;SDS011;55961;52.156;20.942;2023-07-20T03:28:35;6.97;;;3.60;;
68923;SDS011;55961;52.156;20.942;2023-07-20T03:31:01;8.30;;;3.70;;
68923;SDS011;55961;52.156;20.942;2023-07-20T03:33:28;8.27;;;3.35;;
68923;SDS011;55961;52.156;20.942;2023-07-20T03:35:55;9.02;;;3.78;;
68923;SDS011;55961;52.156;20.942;2023-07-20T03:38:22;8.67;;;3.80;;
68923;SDS011;55961;52.156;20.942;2023-07-20T03:40:49;8.80;;;5.07;;
68923;SDS011;55961;52.156;20.942;2023-07-20T03:43:18;8.43;;;3.72;;
68923;SDS011;55961;52.156;20.942;2023-07-20T03:45:45;8.68;;;3.80;;
68923;SDS011;55961;52.156;20.942;2023-07-20T03:48:11;10.27;;;3.72;;
68923;SDS011;55961;52.156;20.942;2023-07-20T03:50:37;8.53;;;3.80;;
68923;SDS011;55961;52.156;20.942;2023-07-20T03:53:03;8.25;;;3.05;;
68923;SDS011;55961;52.156;20.942;2023-07-20T03:55:30;7.95;;;3.35;;
68923;SDS011;55961;52.156;20.942;2023-07-20T03:57:56;6.82;;;3.50;;
68923;SDS011;55961;52.156;20.942;2023-07-20T04:00:22;7.80;;;3.30;;
68923;SDS011;55961;52.156;20.942;2023-07-20T04:02:49;8.82;;;3.55;;
68923;SDS011;55961;52.156;20.942;2023-07-20T04:05:14;6.05;;;3.03;;
68923;SDS011;55961;52.156;20.942;2023-07-20T04:07:41;8.18;;;3.20;;
68923;SDS011;55961;52.156;20.942;2023-07-20T04:10:07;6.73;;;3.50;;
68923;SDS011;55961;52.156;20.942;2023-07-20T04:12:33;9.05;;;3.30;;
68923;SDS011;55961;52.156;20.942;2023-07-20T04:14:59;6.75;;;3.20;;
68923;SDS011;55961;52.156;20.942;2023-07-20T04:17:26;6.15;;;3.25;;
68923;SDS011;55961;52.156;20.942;2023-07-20T04:19:51;5.37;;;3.30;;
68923;SDS011;55961;52.156;20.942;2023-07-20T04:22:17;7.88;;;3.70;;
68923;SDS011;55961;52.156;20.942;2023-07-20T04:24:43;7.25;;;3.90;;
68923;SDS011;55961;52.156;20.942;2023-07-20T04:27:09;6.95;;;4.35;;
68923;SDS011;55961;52.156;20.942;2023-07-20T04:29:35;7.50;;;3.87;;
68923;SDS011;55961;52.156;20.942;2023-07-20T04:32:01;8.25;;;4.25;;
68923;SDS011;55961;52.156;20.942;2023-07-20T04:34:27;7.78;;;4.00;;
68923;SDS011;55961;52.156;20.942;2023-07-20T04:36:53;8.38;;;4.18;;
68923;SDS011;55961;52.156;20.942;2023-07-20T04:39:19;8.97;;;4.40;;
68923;SDS011;55961;52.156;20.942;2023-07-20T04:41:45;7.90;;;4.00;;
68923;SDS011;55961;52.156;20.942;2023-07-20T04:44:11;8.23;;;4.27;;
68923;SDS011;55961;52.156;20.942;2023-07-20T04:46:38;9.48;;;4.38;;
68923;SDS011;55961;52.156;20.942;2023-07-20T04:49:05;6.95;;;4.00;;
68923;SDS011;55961;52.156;20.942;2023-07-20T04:51:31;7.68;;;4.60;;
68923;SDS011;55961;52.156;20.942;2023-07-20T04:53:57;8.82;;;4.28;;
68923;SDS011;55961;52.156;20.942;2023-07-20T04:56:24;7.23;;;3.90;;
68923;SDS011;55961;52.156;20.942;2023-07-20T04:58:50;6.53;;;4.15;;
68923;SDS011;55961;52.156;20.942;2023-07-20T05:01:16;6.70;;;4.30;;
68923;SDS011;55961;52.156;20.942;2023-07-20T05:03:42;7.82;;;4.20;;
68923;SDS011;55961;52.156;20.942;2023-07-20T05:06:08;7.50;;;4.57;;
68923;SDS011;55961;52.156;20.942;2023-07-20T05:08:34;9.10;;;4.65;;
68923;SDS011;55961;52.156;20.942;2023-07-20T05:11:00;9.02;;;4.95;;
68923;SDS011;55961;52.156;20.942;2023-07-20T05:13:26;10.90;;;5.37;;
68923;SDS011;55961;52.156;20.942;2023-07-20T05:15:52;8.95;;;4.72;;
68923;SDS011;55961;52.156;20.942;2023-07-20T05:18:18;10.23;;;5.25;;
68923;SDS011;55961;52.156;20.942;2023-07-20T05:20:49;9.77;;;5.30;;
68923;SDS011;55961;52.156;20.942;2023-07-20T05:23:18;7.55;;;5.10;;
68923;SDS011;55961;52.156;20.942;2023-07-20T05:25:45;8.10;;;5.33;;
68923;SDS011;55961;52.156;20.942;2023-07-20T05:28:11;12.23;;;5.65;;
68923;SDS011;55961;52.156;20.942;2023-07-20T05:30:37;9.50;;;5.95;;
68923;SDS011;55961;52.156;20.942;2023-07-20T05:33:03;10.03;;;5.87;;
68923;SDS011;55961;52.156;20.942;2023-07-20T05:35:29;9.30;;;6.00;;
68923;SDS011;55961;52.156;20.942;2023-07-20T05:37:55;9.18;;;5.57;;
68923;SDS011;55961;52.156;20.942;2023-07-20T05:40:21;10.27;;;6.05;;
68923;SDS011;55961;52.156;20.942;2023-07-20T05:42:47;8.50;;;5.80;;
68923;SDS011;55961;52.156;20.942;2023-07-20T05:45:14;9.47;;;5.23;;
68923;SDS011;55961;52.156;20.942;2023-07-20T05:47:41;11.63;;;5.82;;
68923;SDS011;55961;52.156;20.942;2023-07-20T05:50:07;10.75;;;6.15;;
68923;SDS011;55961;52.156;20.942;2023-07-20T05:52:34;8.55;;;5.43;;
68923;SDS011;55961;52.156;20.942;2023-07-20T05:55:00;9.77;;;5.90;;
68923;SDS011;55961;52.156;20.942;2023-07-20T05:57:26;9.53;;;5.43;;
68923;SDS011;55961;52.156;20.942;2023-07-20T05:59:52;10.73;;;4.85;;
68923;SDS011;55961;52.156;20.942;2023-07-20T06:02:18;10.05;;;5.35;;
68923;SDS011;55961;52.156;20.942;2023-07-20T06:04:44;8.77;;;5.30;;
68923;SDS011;55961;52.156;20.942;2023-07-20T06:07:10;8.23;;;5.15;;
68923;SDS011;55961;52.156;20.942;2023-07-20T06:09:36;9.95;;;5.40;;
68923;SDS011;55961;52.156;20.942;2023-07-20T06:12:02;10.13;;;5.53;;
68923;SDS011;55961;52.156;20.942;2023-07-20T06:14:28;10.03;;;5.17;;
68923;SDS011;55961;52.156;20.942;2023-07-20T06:16:54;10.00;;;6.10;;
68923;SDS011;55961;52.156;20.942;2023-07-20T06:19:20;11.82;;;5.60;;
68923;SDS011;55961;52.156;20.942;2023-07-20T06:21:47;9.88;;;5.75;;
68923;SDS011;55961;52.156;20.942;2023-07-20T06:24:15;12.85;;;5.90;;
68923;SDS011;55961;52.156;20.942;2023-07-20T06:26:41;8.07;;;4.77;;
68923;SDS011;55961;52.156;20.942;2023-07-20T06:29:07;9.40;;;5.70;;
68923;SDS011;55961;52.156;20.942;2023-07-20T06:31:36;10.82;;;5.93;;
68923;SDS011;55961;52.156;20.942;2023-07-20T06:34:03;12.95;;;5.85;;
68923;SDS011;55961;52.156;20.942;2023-07-20T06:36:28;10.32;;;5.28;;
68923;SDS011;55961;52.156;20.942;2023-07-20T06:38:55;10.37;;;5.90;;
68923;SDS011;55961;52.156;20.942;2023-07-20T06:41:21;9.65;;;5.72;;
68923;SDS011;55961;52.156;20.942;2023-07-20T06:43:48;9.10;;;5.57;;
68923;SDS011;55961;52.156;20.942;2023-07-20T06:46:13;8.83;;;4.73;;
68923;SDS011;55961;52.156;20.942;2023-07-20T06:48:40;8.10;;;5.43;;
68923;SDS011;55961;52.156;20.942;2023-07-20T06:51:05;8.20;;;5.90;;
68923;SDS011;55961;52.156;20.942;2023-07-20T06:53:32;10.88;;;5.82;;
68923;SDS011;55961;52.156;20.942;2023-07-20T06:55:58;9.18;;;5.88;;
68923;SDS011;55961;52.156;20.942;2023-07-20T06:58:24;9.47;;;5.87;;
68923;SDS011;55961;52.156;20.942;2023-07-20T07:00:51;10.88;;;5.93;;
68923;SDS011;55961;52.156;20.942;2023-07-20T07:03:17;10.50;;;6.25;;
68923;SDS011;55961;52.156;20.942;2023-07-20T07:05:43;11.00;;;6.00;;
68923;SDS011;55961;52.156;20.942;2023-07-20T07:08:12;9.00;;;5.90;;
68923;SDS011;55961;52.156;20.942;2023-07-20T07:10:38;11.88;;;6.38;;
68923;SDS011;55961;52.156;20.942;2023-07-20T07:13:04;11.18;;;6.72;;
68923;SDS011;55961;52.156;20.942;2023-07-20T07:15:30;9.50;;;6.27;;
68923;SDS011;55961;52.156;20.942;2023-07-20T07:17:56;11.00;;;6.40;;
68923;SDS011;55961;52.156;20.942;2023-07-20T07:20:22;13.38;;;6.30;;
68923;SDS011;55961;52.156;20.942;2023-07-20T07:22:49;9.73;;;5.78;;
68923;SDS011;55961;52.156;20.942;2023-07-20T07:25:16;8.70;;;5.70;;
68923;SDS011;55961;52.156;20.942;2023-07-20T07:27:42;12.63;;;6.30;;
68923;SDS011;55961;52.156;20.942;2023-07-20T07:30:08;11.82;;;6.50;;
68923;SDS011;55961;52.156;20.942;2023-07-20T07:32:34;10.55;;;6.65;;
68923;SDS011;55961;52.156;20.942;2023-07-20T07:35:00;10.23;;;7.00;;
68923;SDS011;55961;52.156;20.942;2023-07-20T07:37:26;11.13;;;6.80;;
68923;SDS011;55961;52.156;20.942;2023-07-20T07:39:52;13.45;;;6.60;;
68923;SDS011;55961;52.156;20.942;2023-07-20T07:42:18;11.73;;;7.78;;
68923;SDS011;55961;52.156;20.942;2023-07-20T07:44:44;9.93;;;6.53;;
68923;SDS011;55961;52.156;20.942;2023-07-20T07:47:10;10.43;;;6.28;;
68923;SDS011;55961;52.156;20.942;2023-07-20T07:49:36;12.80;;;6.80;;
68923;SDS011;55961;52.156;20.942;2023-07-20T07:52:02;12.17;;;7.50;;
68923;SDS011;55961;52.156;20.942;2023-07-20T07:54:28;11.30;;;7.28;;
68923;SDS011;55961;52.156;20.942;2023-07-20T07:56:54;10.45;;;7.07;;
68923;SDS011;55961;52.156;20.942;2023-07-20T07:59:21;10.38;;;6.78;;
68923;SDS011;55961;52.156;20.942;2023-07-20T08:01:47;14.55;;;7.18;;
68923;SDS011;55961;52.156;20.942;2023-07-20T08:04:13;12.50;;;6.07;;
68923;SDS011;55961;52.156;20.942;2023-07-20T08:06:39;10.85;;;6.90;;
68923;SDS011;55961;52.156;20.942;2023-07-20T08:09:05;14.00;;;5.88;;
68923;SDS011;55961;52.156;20.942;2023-07-20T08:11:31;10.10;;;6.18;;
68923;SDS011;55961;52.156;20.942;2023-07-20T08:13:59;9.63;;;5.77;;
68923;SDS011;55961;52.156;20.942;2023-07-20T08:16:26;13.80;;;6.15;;
68923;SDS011;55961;52.156;20.942;2023-07-20T08:18:52;12.50;;;6.68;;
68923;SDS011;55961;52.156;20.942;2023-07-20T08:21:18;11.30;;;6.50;;
68923;SDS011;55961;52.156;20.942;2023-07-20T08:23:44;9.75;;;6.35;;
68923;SDS011;55961;52.156;20.942;2023-07-20T08:26:10;9.17;;;6.00;;
68923;SDS011;55961;52.156;20.942;2023-07-20T08:28:36;10.20;;;6.03;;
68923;SDS011;55961;52.156;20.942;2023-07-20T08:31:02;10.18;;;6.30;;
68923;SDS011;55961;52.156;20.942;2023-07-20T08:33:30;10.48;;;6.70;;
68923;SDS011;55961;52.156;20.942;2023-07-20T08:35:59;8.83;;;6.30;;
68923;SDS011;55961;52.156;20.942;2023-07-20T08:38:27;11.43;;;5.75;;
68923;SDS011;55961;52.156;20.942;2023-07-20T08:40:53;11.77;;;6.63;;
68923;SDS011;55961;52.156;20.942;2023-07-20T08:43:20;9.75;;;6.00;;
68923;SDS011;55961;52.156;20.942;2023-07-20T08:45:51;8.35;;;4.32;;
68923;SDS011;55961;52.156;20.942;2023-07-20T08:48:20;7.60;;;4.60;;
68923;SDS011;55961;52.156;20.942;2023-07-20T08:50:53;8.93;;;5.00;;
68923;SDS011;55961;52.156;20.942;2023-07-20T08:53:20;10.80;;;5.28;;
68923;SDS011;55961;52.156;20.942;2023-07-20T08:55:46;9.10;;;5.07;;
68923;SDS011;55961;52.156;20.942;2023-07-20T08:58:15;10.13;;;5.78;;
68923;SDS011;55961;52.156;20.942;2023-07-20T09:00:43;10.50;;;5.93;;
68923;SDS011;55961;52.156;20.942;2023-07-20T09:03:09;8.02;;;5.10;;
68923;SDS011;55961;52.156;20.942;2023-07-20T09:05:36;8.18;;;5.13;;
68923;SDS011;55961;52.156;20.942;2023-07-20T09:08:04;9.05;;;5.18;;
68923;SDS011;55961;52.156;20.942;2023-07-20T09:10:30;8.52;;;5.00;;
68923;SDS011;55961;52.156;20.942;2023-07-20T09:12:56;7.50;;;4.60;;
68923;SDS011;55961;52.156;20.942;2023-07-20T09:15:22;6.47;;;4.43;;
68923;SDS011;55961;52.156;20.942;2023-07-20T09:17:49;8.85;;;4.57;;
68923;SDS011;55961;52.156;20.942;2023-07-20T09:20:16;8.17;;;4.27;;
68923;SDS011;55961;52.156;20.942;2023-07-20T09:22:44;5.88;;;3.97;;
68923;SDS011;55961;52.156;20.942;2023-07-20T09:25:14;8.13;;;3.97;;
68923;SDS011;55961;52.156;20.942;2023-07-20T09:27:42;6.95;;;3.88;;
68923;SDS011;55961;52.156;20.942;2023-07-20T09:30:10;7.13;;;3.67;;
68923;SDS011;55961;52.156;20.942;2023-07-20T09:35:14;6.88;;;2.95;;
68923;SDS011;55961;52.156;20.942;2023-07-20T09:37:48;5.68;;;3.22;;
68923;SDS011;55961;52.156;20.942;2023-07-20T09:40:18;7.47;;;2.67;;
68923;SDS011;55961;52.156;20.942;2023-07-20T09:42:44;5.47;;;2.40;;
68923;SDS011;55961;52.156;20.942;2023-07-20T09:45:11;5.50;;;2.27;;
68923;SDS011;55961;52.156;20.942;2023-07-20T09:47:37;5.13;;;2.92;;
68923;SDS011;55961;52.156;20.942;2023-07-20T09:50:04;5.32;;;2.67;;
68923;SDS011;55961;52.156;20.942;2023-07-20T09:52:36;7.38;;;2.83;;
68923;SDS011;55961;52.156;20.942;2023-07-20T09:55:05;7.10;;;3.22;;
68923;SDS011;55961;52.156;20.942;2023-07-20T09:57:34;5.10;;;2.50;;
68923;SDS011;55961;52.156;20.942;2023-07-20T10:00:02;4.80;;;2.35;;
68923;SDS011;55961;52.156;20.942;2023-07-20T10:02:35;4.85;;;2.58;;
68923;SDS011;55961;52.156;20.942;2023-07-20T10:05:07;6.57;;;2.30;;
68923;SDS011;55961;52.156;20.942;2023-07-20T10:07:34;5.30;;;2.15;;
68923;SDS011;55961;52.156;20.942;2023-07-20T10:10:04;6.07;;;2.43;;
68923;SDS011;55961;52.156;20.942;2023-07-20T10:12:32;5.55;;;2.83;;
68923;SDS011;55961;52.156;20.942;2023-07-20T10:15:04;5.45;;;2.80;;
68923;SDS011;55961;52.156;20.942;2023-07-20T10:17:56;6.78;;;3.00;;
68923;SDS011;55961;52.156;20.942;2023-07-20T10:20:27;5.75;;;2.90;;
68923;SDS011;55961;52.156;20.942;2023-07-20T10:35:17;6.47;;;3.92;;
68923;SDS011;55961;52.156;20.942;2023-07-20T10:37:47;5.30;;;3.30;;
68923;SDS011;55961;52.156;20.942;2023-07-20T10:40:27;5.18;;;2.90;;
68923;SDS011;55961;52.156;20.942;2023-07-20T10:43:11;6.67;;;3.53;;
68923;SDS011;55961;52.156;20.942;2023-07-20T10:45:53;5.15;;;3.15;;
68923;SDS011;55961;52.156;20.942;2023-07-20T10:48:20;6.03;;;3.65;;
68923;SDS011;55961;52.156;20.942;2023-07-20T10:53:36;5.38;;;3.17;;
68923;SDS011;55961;52.156;20.942;2023-07-20T10:56:23;7.20;;;3.40;;
68923;SDS011;55961;52.156;20.942;2023-07-20T10:58:48;6.95;;;3.40;;
68923;SDS011;55961;52.156;20.942;2023-07-20T11:01:18;5.32;;;3.53;;
68923;SDS011;55961;52.156;20.942;2023-07-20T11:03:48;5.10;;;3.40;;
68923;SDS011;55961;52.156;20.942;2023-07-20T11:08:56;6.00;;;2.92;;
68923;SDS011;55961;52.156;20.942;2023-07-20T11:11:32;4.78;;;3.33;;
68923;SDS011;55961;52.156;20.942;2023-07-20T11:14:01;5.38;;;3.20;;
68923;SDS011;55961;52.156;20.942;2023-07-20T11:16:48;6.60;;;3.17;;
68923;SDS011;55961;52.156;20.942;2023-07-20T11:19:17;5.03;;;3.00;;
68923;SDS011;55961;52.156;20.942;2023-07-20T11:21:57;7.63;;;3.17;;
68923;SDS011;55961;52.156;20.942;2023-07-20T11:24:24;6.55;;;3.33;;
68923;SDS011;55961;52.156;20.942;2023-07-20T11:26:51;5.30;;;2.92;;
68923;SDS011;55961;52.156;20.942;2023-07-20T11:29:19;4.90;;;3.42;;
68923;SDS011;55961;52.156;20.942;2023-07-20T11:31:47;4.90;;;3.40;;
68923;SDS011;55961;52.156;20.942;2023-07-20T11:34:14;5.57;;;3.13;;
68923;SDS011;55961;52.156;20.942;2023-07-20T11:36:43;4.93;;;2.60;;
68923;SDS011;55961;52.156;20.942;2023-07-20T11:39:12;6.65;;;3.45;;
68923;SDS011;55961;52.156;20.942;2023-07-20T11:41:39;5.68;;;2.92;;
68923;SDS011;55961;52.156;20.942;2023-07-20T11:44:11;5.77;;;2.43;;
68923;SDS011;55961;52.156;20.942;2023-07-20T11:46:43;4.40;;;2.80;;
68923;SDS011;55961;52.156;20.942;2023-07-20T11:49:10;5.63;;;3.00;;
68923;SDS011;55961;52.156;20.942;2023-07-20T11:51:37;5.60;;;3.20;;
68923;SDS011;55961;52.156;20.942;2023-07-20T11:54:05;4.10;;;2.80;;
68923;SDS011;55961;52.156;20.942;2023-07-20T11:56:33;5.80;;;2.80;;
68923;SDS011;55961;52.156;20.942;2023-07-20T11:58:59;4.43;;;2.83;;
68923;SDS011;55961;52.156;20.942;2023-07-20T12:01:27;5.50;;;2.75;;
68923;SDS011;55961;52.156;20.942;2023-07-20T12:04:02;4.30;;;2.50;;
68923;SDS011;55961;52.156;20.942;2023-07-20T12:06:28;4.03;;;2.22;;
68923;SDS011;55961;52.156;20.942;2023-07-20T12:08:58;4.80;;;2.70;;
68923;SDS011;55961;52.156;20.942;2023-07-20T12:14:02;5.05;;;2.65;;
68923;SDS011;55961;52.156;20.942;2023-07-20T12:16:34;4.85;;;2.75;;
68923;SDS011;55961;52.156;20.942;2023-07-20T12:19:02;4.03;;;2.65;;
68923;SDS011;55961;52.156;20.942;2023-07-20T12:21:30;3.87;;;2.60;;
68923;SDS011;55961;52.156;20.942;2023-07-20T12:23:57;3.65;;;2.75;;
68923;SDS011;55961;52.156;20.942;2023-07-20T12:26:23;4.22;;;2.58;;
68923;SDS011;55961;52.156;20.942;2023-07-20T12:28:51;4.78;;;2.90;;
68923;SDS011;55961;52.156;20.942;2023-07-20T12:31:17;5.22;;;2.92;;
68923;SDS011;55961;52.156;20.942;2023-07-20T12:33:43;4.67;;;2.80;;
68923;SDS011;55961;52.156;20.942;2023-07-20T12:36:09;5.28;;;2.83;;
68923;SDS011;55961;52.156;20.942;2023-07-20T12:38:36;5.72;;;3.10;;
68923;SDS011;55961;52.156;20.942;2023-07-20T12:41:02;5.30;;;3.50;;
68923;SDS011;55961;52.156;20.942;2023-07-20T12:43:28;5.57;;;3.40;;
68923;SDS011;55961;52.156;20.942;2023-07-20T12:45:55;4.63;;;3.22;;
68923;SDS011;55961;52.156;20.942;2023-07-20T12:48:21;6.05;;;3.10;;
68923;SDS011;55961;52.156;20.942;2023-07-20T12:50:48;7.10;;;3.00;;
68923;SDS011;55961;52.156;20.942;2023-07-20T12:53:14;5.65;;;3.45;;
68923;SDS011;55961;52.156;20.942;2023-07-20T12:55:40;9.43;;;3.57;;
68923;SDS011;55961;52.156;20.942;2023-07-20T12:58:06;5.00;;;3.30;;
68923;SDS011;55961;52.156;20.942;2023-07-20T13:00:33;5.88;;;3.70;;
68923;SDS011;55961;52.156;20.942;2023-07-20T13:02:59;5.93;;;3.67;;
68923;SDS011;55961;52.156;20.942;2023-07-20T13:05:25;7.28;;;3.42;;
68923;SDS011;55961;52.156;20.942;2023-07-20T13:07:51;6.10;;;3.80;;
68923;SDS011;55961;52.156;20.942;2023-07-20T13:10:17;6.57;;;4.22;;
68923;SDS011;55961;52.156;20.942;2023-07-20T13:12:43;4.82;;;3.72;;
68923;SDS011;55961;52.156;20.942;2023-07-20T13:15:10;5.03;;;3.45;;
68923;SDS011;55961;52.156;20.942;2023-07-20T13:17:36;6.03;;;3.80;;
68923;SDS011;55961;52.156;20.942;2023-07-20T13:20:04;4.80;;;3.53;;
68923;SDS011;55961;52.156;20.942;2023-07-20T13:22:32;5.70;;;3.72;;
68923;SDS011;55961;52.156;20.942;2023-07-20T13:24:59;4.95;;;3.40;;
68923;SDS011;55961;52.156;20.942;2023-07-20T13:27:25;4.78;;;3.17;;
68923;SDS011;55961;52.156;20.942;2023-07-20T13:29:51;5.47;;;3.07;;
68923;SDS011;55961;52.156;20.942;2023-07-20T13:32:18;4.60;;;3.33;;
68923;SDS011;55961;52.156;20.942;2023-07-20T13:34:44;6.32;;;3.08;;
68923;SDS011;55961;52.156;20.942;2023-07-20T13:37:11;4.43;;;2.90;;
68923;SDS011;55961;52.156;20.942;2023-07-20T13:39:37;5.67;;;2.77;;
68923;SDS011;55961;52.156;20.942;2023-07-20T13:42:04;3.95;;;2.70;;
68923;SDS011;55961;52.156;20.942;2023-07-20T13:44:30;5.80;;;2.63;;
68923;SDS011;55961;52.156;20.942;2023-07-20T13:46:57;4.65;;;2.60;;
68923;SDS011;55961;52.156;20.942;2023-07-20T13:49:23;6.07;;;3.08;;
68923;SDS011;55961;52.156;20.942;2023-07-20T13:51:49;5.00;;;2.60;;
68923;SDS011;55961;52.156;20.942;2023-07-20T13:54:15;3.55;;;2.25;;
68923;SDS011;55961;52.156;20.942;2023-07-20T13:56:41;5.55;;;2.72;;
68923;SDS011;55961;52.156;20.942;2023-07-20T13:59:07;3.97;;;2.40;;
68923;SDS011;55961;52.156;20.942;2023-07-20T14:01:33;4.63;;;2.60;;
68923;SDS011;55961;52.156;20.942;2023-07-20T14:04:00;4.20;;;2.40;;
68923;SDS011;55961;52.156;20.942;2023-07-20T14:06:29;4.32;;;2.28;;
68923;SDS011;55961;52.156;20.942;2023-07-20T14:08:56;4.30;;;2.20;;
68923;SDS011;55961;52.156;20.942;2023-07-20T14:11:22;3.17;;;1.93;;
68923;SDS011;55961;52.156;20.942;2023-07-20T14:13:49;3.53;;;2.13;;
68923;SDS011;55961;52.156;20.942;2023-07-20T14:16:17;3.85;;;2.30;;
68923;SDS011;55961;52.156;20.942;2023-07-20T14:18:42;4.45;;;2.03;;
68923;SDS011;55961;52.156;20.942;2023-07-20T14:21:11;4.67;;;2.20;;
68923;SDS011;55961;52.156;20.942;2023-07-20T14:23:37;3.75;;;2.22;;
68923;SDS011;55961;52.156;20.942;2023-07-20T14:26:03;4.85;;;2.20;;
68923;SDS011;55961;52.156;20.942;2023-07-20T14:28:34;3.58;;;1.65;;
68923;SDS011;55961;52.156;20.942;2023-07-20T14:31:00;3.77;;;2.10;;
68923;SDS011;55961;52.156;20.942;2023-07-20T14:33:26;4.35;;;2.00;;
68923;SDS011;55961;52.156;20.942;2023-07-20T14:35:52;5.13;;;2.50;;
68923;SDS011;55961;52.156;20.942;2023-07-20T14:38:18;4.53;;;2.37;;
68923;SDS011;55961;52.156;20.942;2023-07-20T14:40:44;3.70;;;2.35;;
68923;SDS011;55961;52.156;20.942;2023-07-20T14:43:11;4.38;;;2.40;;
68923;SDS011;55961;52.156;20.942;2023-07-20T14:45:37;3.92;;;2.47;;
68923;SDS011;55961;52.156;20.942;2023-07-20T14:48:03;4.43;;;2.60;;
68923;SDS011;55961;52.156;20.942;2023-07-20T14:50:29;3.77;;;2.20;;
68923;SDS011;55961;52.156;20.942;2023-07-20T14:52:55;4.70;;;2.30;;
68923;SDS011;55961;52.156;20.942;2023-07-20T14:55:21;4.13;;;2.00;;
68923;SDS011;55961;52.156;20.942;2023-07-20T14:57:47;4.80;;;2.03;;
68923;SDS011;55961;52.156;20.942;2023-07-20T15:00:14;3.00;;;1.80;;
68923;SDS011;55961;52.156;20.942;2023-07-20T15:02:40;6.05;;;3.03;;
68923;SDS011;55961;52.156;20.942;2023-07-20T15:05:07;2.95;;;1.60;;
68923;SDS011;55961;52.156;20.942;2023-07-20T15:07:33;3.70;;;1.60;;